createdAt,value
2023-03-16T00:01:42.061Z,7.25
2023-03-16T00:04:09.005Z,6.93
2023-03-16T00:06:35.491Z,5.55
2023-03-16T00:09:02.745Z,7.63
2023-03-16T00:11:29.394Z,4.80
2023-03-16T00:13:55.972Z,7.40
2023-03-16T00:16:22.509Z,4.70
2023-03-16T00:18:49.136Z,6.88
2023-03-16T00:21:15.970Z,7.38
2023-03-16T00:23:42.431Z,4.68
2023-03-16T00:26:09.611Z,5.00
2023-03-16T00:28:36.729Z,6.53
2023-03-16T00:31:08.761Z,5.65
2023-03-16T00:33:35.395Z,4.55
2023-03-16T00:36:07.004Z,6.25
2023-03-16T00:38:38.600Z,6.95
2023-03-16T00:41:07.686Z,5.72
2023-03-16T00:43:35.970Z,6.57
2023-03-16T00:46:02.505Z,6.22
2023-03-16T00:48:29.177Z,5.38
2023-03-16T00:50:55.685Z,6.20
2023-03-16T00:53:22.268Z,5.57
2023-03-16T00:55:48.815Z,5.43
2023-03-16T00:58:15.558Z,5.18
2023-03-16T01:00:42.120Z,6.00
2023-03-16T01:03:08.782Z,6.45
2023-03-16T01:05:40.139Z,7.93
2023-03-16T01:08:06.748Z,7.20
2023-03-16T01:10:35.408Z,7.28
2023-03-16T01:13:02.185Z,6.18
2023-03-16T01:15:31.784Z,5.28
2023-03-16T01:17:58.463Z,6.50
2023-03-16T01:20:25.014Z,6.03
2023-03-16T01:22:51.870Z,8.43
2023-03-16T01:25:18.816Z,5.25
2023-03-16T01:27:45.401Z,5.32
2023-03-16T01:30:12.562Z,9.73
2023-03-16T01:32:39.502Z,5.28
2023-03-16T01:35:07.824Z,5.50
2023-03-16T01:37:34.399Z,5.32
2023-03-16T01:42:47.433Z,6.30
2023-03-16T01:45:52.070Z,4.20
2023-03-16T01:48:24.756Z,6.22
2023-03-16T01:50:53.292Z,6.95
2023-03-16T01:55:50.622Z,5.82
2023-03-16T01:58:17.691Z,5.03
2023-03-16T02:00:44.461Z,3.95
2023-03-16T02:03:21.172Z,5.20
2023-03-16T02:06:11.426Z,8.60
2023-03-16T02:08:44.675Z,6.25
2023-03-16T02:11:12.375Z,3.80
2023-03-16T02:13:51.165Z,4.40
2023-03-16T02:16:19.724Z,5.77
2023-03-16T02:18:50.420Z,5.25
2023-03-16T02:21:29.147Z,5.38
2023-03-16T02:23:55.830Z,5.60
2023-03-16T02:26:46.016Z,5.72
2023-03-16T02:29:51.945Z,5.38
2023-03-16T02:32:20.743Z,6.85
2023-03-16T02:34:47.594Z,5.82
2023-03-16T02:37:14.424Z,4.88
2023-03-16T02:39:42.033Z,9.68
2023-03-16T02:42:13.137Z,4.93
2023-03-16T02:44:40.416Z,6.32
2023-03-16T02:47:13.198Z,6.80
2023-03-16T02:49:45.462Z,6.57
2023-03-16T02:52:12.594Z,6.45
2023-03-16T02:54:39.450Z,6.45
2023-03-16T02:57:06.071Z,5.63
2023-03-16T02:59:35.428Z,6.35
2023-03-16T03:02:02.660Z,6.20
2023-03-16T03:04:29.205Z,6.20
2023-03-16T03:06:55.829Z,5.43
2023-03-16T03:09:22.405Z,5.00
2023-03-16T03:11:53.085Z,4.00
2023-03-16T03:14:20.979Z,6.07
2023-03-16T03:16:49.124Z,5.90
2023-03-16T03:19:15.797Z,9.15
2023-03-16T03:21:42.383Z,6.50
2023-03-16T03:24:09.634Z,7.45
2023-03-16T03:29:05.656Z,4.20
2023-03-16T03:31:35.026Z,4.78
2023-03-16T03:34:01.730Z,8.45
2023-03-16T03:36:28.206Z,5.43
2023-03-16T03:38:54.841Z,5.03
2023-03-16T03:41:21.655Z,7.68
2023-03-16T03:43:49.083Z,5.70
2023-03-16T03:46:17.969Z,4.78
2023-03-16T03:48:44.771Z,7.22
2023-03-16T03:51:11.476Z,9.40
2023-03-16T03:53:46.337Z,5.90
2023-03-16T03:56:38.816Z,7.53
2023-03-16T03:59:10.198Z,4.97
2023-03-16T04:02:02.890Z,6.43
2023-03-16T04:04:46.974Z,5.35
2023-03-16T04:07:14.739Z,4.70
2023-03-16T04:09:42.934Z,5.70
2023-03-16T04:12:17.572Z,7.07
2023-03-16T04:14:44.249Z,5.28
2023-03-16T04:17:11.348Z,7.83
2023-03-16T04:19:39.729Z,6.63
2023-03-16T04:22:11.021Z,7.38
2023-03-16T04:24:37.577Z,6.38
2023-03-16T04:27:04.386Z,6.07
2023-03-16T04:29:31.017Z,5.47
2023-03-16T04:31:58.484Z,7.03
2023-03-16T04:34:27.399Z,5.85
2023-03-16T04:36:58.135Z,6.75
2023-03-16T04:39:24.758Z,12.75
2023-03-16T04:41:52.355Z,6.82
2023-03-16T04:44:22.150Z,7.13
2023-03-16T04:46:50.114Z,8.77
2023-03-16T04:49:17.696Z,9.43
2023-03-16T04:51:45.480Z,13.48
2023-03-16T04:54:18.831Z,11.55
2023-03-16T04:56:45.363Z,8.85
2023-03-16T04:59:30.748Z,15.20
2023-03-16T05:02:04.628Z,17.83
2023-03-16T05:04:31.842Z,31.40
2023-03-16T05:06:58.393Z,11.85
2023-03-16T05:09:29.598Z,24.95
2023-03-16T05:11:56.146Z,11.02
2023-03-16T05:14:22.752Z,14.63
2023-03-16T05:17:04.375Z,44.55
2023-03-16T05:19:32.195Z,10.93
2023-03-16T05:21:58.745Z,16.33
2023-03-16T05:24:25.720Z,19.02
2023-03-16T05:26:52.305Z,10.80
2023-03-16T05:29:21.338Z,13.48
2023-03-16T05:31:49.791Z,10.75
2023-03-16T05:34:20.303Z,12.07
2023-03-16T05:36:46.820Z,11.82
2023-03-16T05:39:16.196Z,11.93
2023-03-16T05:41:46.986Z,18.10
2023-03-16T05:44:21.980Z,11.55
2023-03-16T05:47:06.933Z,10.80
2023-03-16T05:49:37.477Z,12.20
2023-03-16T05:52:08.720Z,9.73
2023-03-16T05:54:35.964Z,14.83
2023-03-16T05:57:02.906Z,10.25
2023-03-16T05:59:29.621Z,17.92
2023-03-16T06:04:24.260Z,16.52
2023-03-16T06:06:50.884Z,11.15
2023-03-16T06:09:23.389Z,12.73
2023-03-16T06:11:49.991Z,10.75
2023-03-16T06:14:17.735Z,12.25
2023-03-16T06:16:45.421Z,13.85
2023-03-16T06:19:13.506Z,9.07
2023-03-16T06:21:40.124Z,9.95
2023-03-16T06:24:09.667Z,9.88
2023-03-16T06:26:37.368Z,12.02
2023-03-16T06:29:07.349Z,8.43
2023-03-16T06:31:36.482Z,12.90
2023-03-16T06:34:03.396Z,9.43
2023-03-16T06:36:30.856Z,15.38
2023-03-16T06:39:00.404Z,10.70
2023-03-16T06:41:33.757Z,24.63
2023-03-16T06:44:00.454Z,13.05
2023-03-16T06:46:27.782Z,9.88
2023-03-16T06:48:55.439Z,11.73
2023-03-16T06:51:22.029Z,17.48
2023-03-16T06:53:50.135Z,20.75
2023-03-16T06:56:17.247Z,18.75
2023-03-16T06:58:45.701Z,16.13
2023-03-16T07:01:12.413Z,13.95
2023-03-16T07:03:39.437Z,28.85
2023-03-16T07:06:14.877Z,27.85
2023-03-16T07:08:42.307Z,23.35
2023-03-16T07:11:09.585Z,33.72
2023-03-16T07:13:36.750Z,24.57
2023-03-16T07:16:03.700Z,18.42
2023-03-16T07:18:30.943Z,20.60
2023-03-16T07:20:58.054Z,28.05
2023-03-16T07:23:26.251Z,18.98
2023-03-16T07:25:58.343Z,16.45
2023-03-16T07:28:25.578Z,18.67
2023-03-16T07:31:03.064Z,21.35
2023-03-16T07:33:36.221Z,17.88
2023-03-16T07:36:05.323Z,22.50
2023-03-16T07:41:00.477Z,17.07
2023-03-16T07:43:28.163Z,16.83
2023-03-16T07:48:24.366Z,17.15
2023-03-16T07:51:00.528Z,18.77
2023-03-16T07:53:28.390Z,23.42
2023-03-16T07:56:11.779Z,18.45
2023-03-16T07:58:40.764Z,19.92
2023-03-16T08:01:07.555Z,19.63
2023-03-16T08:03:35.376Z,20.73
2023-03-16T08:06:01.902Z,17.85
2023-03-16T08:08:28.757Z,20.15
2023-03-16T08:10:56.686Z,16.65
2023-03-16T08:13:33.793Z,19.23
2023-03-16T08:16:00.380Z,20.92
2023-03-16T08:18:32.775Z,15.90
2023-03-16T08:20:59.376Z,19.45
2023-03-16T08:23:26.162Z,20.45
2023-03-16T08:25:57.288Z,20.85
2023-03-16T08:28:24.874Z,21.77
2023-03-16T08:30:53.812Z,23.53
2023-03-16T08:33:28.657Z,16.88
2023-03-16T08:35:55.686Z,17.33
2023-03-16T08:38:22.278Z,18.35
2023-03-16T08:40:51.399Z,15.63
2023-03-16T08:43:20.482Z,19.55
2023-03-16T08:45:48.763Z,17.02
2023-03-16T08:48:17.227Z,21.38
2023-03-16T08:50:46.818Z,19.70
2023-03-16T08:53:14.994Z,18.40
2023-03-16T08:55:42.210Z,17.13
2023-03-16T08:58:10.221Z,19.63
2023-03-16T09:00:37.142Z,17.88
2023-03-16T09:03:03.961Z,16.27
2023-03-16T09:05:30.478Z,18.23
2023-03-16T09:07:57.409Z,17.92
2023-03-16T09:10:23.916Z,20.60
2023-03-16T09:12:50.990Z,21.88
2023-03-16T09:15:19.204Z,18.42
2023-03-16T09:20:30.050Z,16.05
2023-03-16T09:22:57.167Z,15.20
2023-03-16T09:25:24.168Z,15.50
2023-03-16T09:27:51.116Z,14.52
2023-03-16T09:30:17.896Z,14.90
2023-03-16T09:32:44.357Z,18.80
2023-03-16T09:35:10.953Z,15.73
2023-03-16T09:37:44.997Z,14.50
2023-03-16T09:40:23.391Z,16.15
2023-03-16T09:43:18.663Z,15.88
2023-03-16T09:45:56.014Z,15.60
2023-03-16T09:48:23.446Z,14.07
2023-03-16T09:50:51.717Z,15.15
2023-03-16T09:53:29.377Z,15.15
2023-03-16T09:56:02.326Z,15.77
2023-03-16T09:58:28.937Z,14.80
2023-03-16T10:01:13.121Z,16.42
2023-03-16T10:03:58.042Z,19.95
2023-03-16T10:06:25.068Z,16.83
2023-03-16T10:09:07.605Z,16.65
2023-03-16T10:11:44.023Z,17.98
2023-03-16T10:14:40.215Z,14.00
2023-03-16T10:17:29.324Z,17.15
2023-03-16T10:20:08.366Z,16.88
2023-03-16T10:22:38.147Z,15.52
2023-03-16T10:25:10.897Z,18.00
2023-03-16T10:27:40.702Z,17.52
2023-03-16T10:30:14.754Z,12.48
2023-03-16T10:32:41.376Z,16.58
2023-03-16T10:35:33.955Z,14.63
2023-03-16T10:38:00.498Z,15.45
2023-03-16T10:40:32.245Z,15.27
2023-03-16T10:43:13.123Z,14.02
2023-03-16T10:45:39.965Z,13.95
2023-03-16T10:48:14.228Z,15.15
2023-03-16T10:50:43.368Z,15.38
2023-03-16T10:53:25.790Z,17.50
2023-03-16T10:55:58.338Z,15.07
2023-03-16T10:58:34.019Z,13.35
2023-03-16T11:01:00.715Z,12.98
2023-03-16T11:03:38.290Z,12.85
2023-03-16T11:06:06.917Z,14.02
2023-03-16T11:08:39.880Z,14.48
2023-03-16T11:11:14.181Z,11.02
2023-03-16T11:13:45.576Z,18.48
2023-03-16T11:16:27.922Z,13.88
2023-03-16T11:19:00.693Z,12.95
2023-03-16T11:21:30.120Z,15.05
2023-03-16T11:23:58.656Z,14.50
2023-03-16T11:26:33.756Z,12.55
2023-03-16T11:29:07.089Z,10.55
2023-03-16T11:31:42.286Z,15.70
2023-03-16T11:34:15.048Z,14.30
2023-03-16T11:36:52.778Z,12.07
2023-03-16T11:39:42.411Z,12.68
2023-03-16T11:42:17.922Z,10.93
2023-03-16T11:45:01.384Z,10.98
2023-03-16T11:47:51.716Z,9.52
2023-03-16T11:50:26.282Z,8.93
2023-03-16T11:53:28.964Z,10.60
2023-03-16T11:56:14.225Z,8.10
2023-03-16T11:58:55.466Z,9.40
2023-03-16T12:01:34.195Z,10.65
2023-03-16T12:04:37.762Z,10.25
2023-03-16T12:07:35.318Z,9.25
2023-03-16T12:10:23.276Z,9.40
2023-03-16T12:13:01.593Z,12.00
2023-03-16T12:15:41.601Z,8.68
2023-03-16T12:18:19.356Z,9.18
2023-03-16T12:21:01.701Z,9.07
2023-03-16T12:23:41.632Z,9.55
2023-03-16T12:26:08.336Z,6.80
2023-03-16T12:28:36.605Z,6.75
2023-03-16T12:31:15.369Z,6.97
2023-03-16T12:33:53.304Z,7.38
2023-03-16T12:36:42.995Z,5.03
2023-03-16T12:39:22.924Z,7.03
2023-03-16T12:42:01.153Z,4.68
2023-03-16T12:44:46.145Z,6.07
2023-03-16T12:47:35.089Z,4.60
2023-03-16T12:50:07.361Z,4.57
2023-03-16T12:52:48.357Z,5.47
2023-03-16T12:55:20.999Z,3.92
2023-03-16T12:57:50.316Z,4.50
2023-03-16T13:00:18.077Z,4.95
2023-03-16T13:02:51.662Z,4.45
2023-03-16T13:05:30.258Z,3.58
2023-03-16T13:08:14.145Z,3.40
2023-03-16T13:10:40.958Z,4.35
2023-03-16T13:13:09.880Z,4.95
2023-03-16T13:15:36.445Z,2.92
2023-03-16T13:18:08.445Z,6.35
2023-03-16T13:20:52.325Z,3.67
2023-03-16T13:23:18.778Z,4.97
2023-03-16T13:25:58.369Z,4.45
2023-03-16T13:28:30.738Z,3.28
2023-03-16T13:30:57.673Z,3.30
2023-03-16T13:33:30.957Z,4.10
2023-03-16T13:35:59.633Z,3.90
2023-03-16T13:38:28.082Z,2.17
2023-03-16T13:40:57.847Z,4.43
2023-03-16T13:43:27.896Z,4.82
2023-03-16T13:45:58.259Z,2.22
2023-03-16T13:48:25.425Z,3.05
2023-03-16T13:50:53.754Z,3.03
2023-03-16T13:53:24.236Z,3.97
2023-03-16T13:55:52.705Z,3.67
2023-03-16T13:58:20.962Z,2.45
2023-03-16T14:00:47.646Z,3.60
2023-03-16T14:03:19.413Z,7.20
2023-03-16T14:05:46.355Z,16.23
2023-03-16T14:08:17.336Z,2.97
2023-03-16T14:10:44.609Z,6.60
2023-03-16T14:13:29.305Z,4.38
2023-03-16T14:15:59.248Z,3.10
2023-03-16T14:18:32.179Z,3.83
2023-03-16T14:20:58.795Z,3.75
2023-03-16T14:23:31.227Z,4.10
2023-03-16T14:25:57.903Z,3.88
2023-03-16T14:28:32.389Z,2.85
2023-03-16T14:31:09.257Z,3.55
2023-03-16T14:33:38.239Z,4.53
2023-03-16T14:36:15.088Z,3.97
2023-03-16T14:38:42.919Z,3.30
2023-03-16T14:41:17.241Z,3.75
2023-03-16T14:43:52.344Z,7.03
2023-03-16T14:46:31.897Z,5.47
2023-03-16T14:49:21.691Z,2.33
2023-03-16T14:51:50.385Z,4.75
2023-03-16T14:54:18.770Z,5.13
2023-03-16T14:56:59.142Z,2.97
2023-03-16T14:59:25.686Z,2.53
2023-03-16T15:01:53.794Z,6.15
2023-03-16T15:07:23.210Z,4.95
2023-03-16T15:09:50.742Z,3.20
2023-03-16T15:12:19.368Z,3.45
2023-03-16T15:14:46.534Z,4.93
2023-03-16T15:17:13.002Z,4.53
2023-03-16T15:19:39.515Z,6.43
2023-03-16T15:22:06.409Z,5.55
2023-03-16T15:24:33.374Z,7.38
2023-03-16T15:27:00.532Z,4.63
2023-03-16T15:29:27.241Z,2.97
2023-03-16T15:31:54.668Z,3.05
2023-03-16T15:34:21.538Z,4.40
2023-03-16T15:36:48.402Z,4.10
2023-03-16T15:39:23.649Z,4.57
2023-03-16T15:41:50.157Z,3.08
2023-03-16T15:44:16.699Z,3.15
2023-03-16T15:46:43.306Z,3.10
2023-03-16T15:49:09.784Z,5.10
2023-03-16T15:51:36.371Z,5.85
2023-03-16T15:54:06.934Z,5.75
2023-03-16T15:56:51.259Z,3.88
2023-03-16T15:59:19.872Z,2.88
2023-03-16T16:01:47.686Z,2.35
2023-03-16T16:04:17.071Z,1.65
2023-03-16T16:06:43.629Z,2.97
2023-03-16T16:09:10.295Z,3.13
2023-03-16T16:11:37.570Z,2.83
2023-03-16T16:14:04.916Z,6.03
2023-03-16T16:16:32.329Z,5.20
2023-03-16T16:18:59.309Z,3.10
2023-03-16T16:21:28.445Z,2.90
2023-03-16T16:23:55.043Z,3.78
2023-03-16T16:26:41.633Z,2.75
2023-03-16T16:29:19.511Z,2.53
2023-03-16T16:31:46.214Z,5.50
2023-03-16T16:34:18.835Z,3.35
2023-03-16T16:36:49.124Z,3.30
2023-03-16T16:39:15.835Z,3.42
2023-03-16T16:41:43.094Z,2.65
2023-03-16T16:44:18.757Z,2.00
2023-03-16T16:46:47.889Z,2.95
2023-03-16T16:49:28.981Z,4.72
2023-03-16T16:51:55.519Z,4.43
2023-03-16T16:54:28.782Z,2.97
2023-03-16T16:56:57.021Z,1.65
2023-03-16T16:59:28.807Z,2.10
2023-03-16T17:01:55.540Z,1.83
2023-03-16T17:04:24.871Z,1.60
2023-03-16T17:06:56.928Z,1.95
2023-03-16T17:09:24.723Z,3.38
2023-03-16T17:11:51.372Z,3.03
2023-03-16T17:14:20.705Z,2.00
2023-03-16T17:16:47.642Z,2.95
2023-03-16T17:19:20.239Z,2.17
2023-03-16T17:21:46.767Z,2.17
2023-03-16T17:24:13.298Z,2.10
2023-03-16T17:26:44.781Z,2.78
2023-03-16T17:29:22.168Z,2.22
2023-03-16T17:31:49.726Z,4.57
2023-03-16T17:34:18.006Z,5.18
2023-03-16T17:36:45.717Z,3.22
2023-03-16T17:39:18.057Z,8.77
2023-03-16T17:41:45.013Z,16.42
2023-03-16T17:44:14.553Z,19.33
2023-03-16T17:46:41.183Z,24.02
2023-03-16T17:49:15.854Z,42.35
2023-03-16T17:51:42.492Z,28.98
2023-03-16T17:54:09.227Z,15.75
2023-03-16T17:56:36.560Z,14.45
2023-03-16T17:59:07.680Z,36.63
2023-03-16T18:01:35.758Z,52.03
2023-03-16T18:06:30.518Z,22.25
2023-03-16T18:08:57.733Z,7.28
2023-03-16T18:11:32.887Z,4.05
2023-03-16T18:14:00.130Z,4.70
2023-03-16T18:16:26.735Z,16.25
2023-03-16T18:18:59.024Z,32.35
2023-03-16T18:21:26.210Z,20.63
2023-03-16T18:23:55.093Z,9.10
2023-03-16T18:26:22.085Z,10.18
2023-03-16T18:28:48.538Z,6.00
2023-03-16T18:31:24.247Z,49.35
2023-03-16T18:33:54.128Z,56.10
2023-03-16T18:36:25.939Z,69.65
2023-03-16T18:38:53.417Z,61.05
2023-03-16T18:41:29.450Z,28.38
2023-03-16T18:43:58.382Z,13.63
2023-03-16T18:46:35.496Z,5.63
2023-03-16T18:49:11.751Z,4.53
2023-03-16T18:51:39.728Z,1.48
2023-03-16T18:54:27.797Z,2.83
2023-03-16T18:56:54.823Z,4.95
2023-03-16T18:59:21.313Z,2.13
2023-03-16T19:01:47.897Z,3.85
2023-03-16T19:04:27.153Z,7.22
2023-03-16T19:06:55.260Z,4.20
2023-03-16T19:11:50.326Z,5.03
2023-03-16T19:14:20.843Z,5.53
2023-03-16T19:16:47.566Z,7.30
2023-03-16T19:19:14.556Z,6.90
2023-03-16T19:21:42.466Z,6.75
2023-03-16T19:24:23.018Z,6.50
2023-03-16T19:26:49.592Z,3.63
2023-03-16T19:29:17.769Z,3.13
2023-03-16T19:34:19.355Z,5.18
2023-03-16T19:36:45.934Z,3.10
2023-03-16T19:39:14.359Z,3.65
2023-03-16T19:41:41.482Z,2.58
2023-03-16T19:44:15.481Z,4.13
2023-03-16T19:46:42.047Z,5.10
2023-03-16T19:49:20.298Z,3.22
2023-03-16T19:51:48.007Z,4.70
2023-03-16T19:54:29.479Z,7.10
2023-03-16T19:56:59.609Z,6.53
2023-03-16T19:59:30.822Z,10.85
2023-03-16T20:01:57.317Z,12.50
2023-03-16T20:04:26.053Z,7.18
2023-03-16T20:06:53.901Z,8.70
2023-03-16T20:09:21.014Z,6.00
2023-03-16T20:11:48.824Z,6.38
2023-03-16T20:14:22.938Z,9.15
2023-03-16T20:16:49.824Z,9.68
2023-03-16T20:19:16.422Z,6.72
2023-03-16T20:21:43.358Z,6.47
2023-03-16T20:24:15.617Z,5.60
2023-03-16T20:26:42.859Z,5.45
2023-03-16T20:31:56.646Z,4.45
2023-03-16T20:34:31.284Z,4.30
2023-03-16T20:36:58.608Z,3.30
2023-03-16T20:39:25.279Z,4.37
2023-03-16T20:41:52.618Z,11.80
2023-03-16T20:44:21.167Z,5.47
2023-03-16T20:46:47.783Z,4.60
2023-03-16T20:49:23.274Z,3.60
2023-03-16T20:51:50.117Z,4.78
2023-03-16T20:54:16.845Z,5.78
2023-03-16T20:56:43.686Z,5.47
2023-03-16T20:59:23.546Z,5.05
2023-03-16T21:01:50.860Z,8.68
2023-03-16T21:04:24.379Z,8.73
2023-03-16T21:06:51.237Z,10.32
2023-03-16T21:09:19.228Z,10.90
2023-03-16T21:11:47.112Z,5.28
2023-03-16T21:14:20.157Z,6.05
2023-03-16T21:16:46.669Z,5.07
2023-03-16T21:19:15.511Z,6.18
2023-03-16T21:21:42.083Z,6.03
2023-03-16T21:24:08.721Z,9.00
2023-03-16T21:26:35.905Z,5.00
2023-03-16T21:29:07.463Z,4.55
2023-03-16T21:31:34.394Z,3.25
2023-03-16T21:34:01.126Z,5.90
2023-03-16T21:36:27.816Z,4.13
2023-03-16T21:38:55.583Z,5.40
2023-03-16T21:41:22.049Z,4.85
2023-03-16T21:43:48.745Z,7.55
2023-03-16T21:46:23.741Z,8.05
2023-03-16T21:48:53.239Z,7.32
2023-03-16T21:51:22.221Z,9.10
2023-03-16T21:53:49.385Z,7.07
2023-03-16T21:56:18.510Z,9.60
2023-03-16T21:58:46.188Z,7.80
2023-03-16T22:01:23.480Z,6.22
2023-03-16T22:03:56.102Z,7.57
2023-03-16T22:06:25.610Z,8.63
2023-03-16T22:08:52.103Z,6.47
2023-03-16T22:11:24.467Z,8.50
2023-03-16T22:13:52.082Z,7.18
2023-03-16T22:16:21.312Z,12.15
2023-03-16T22:18:50.218Z,6.82
2023-03-16T22:21:38.588Z,7.70
2023-03-16T22:24:12.796Z,6.43
2023-03-16T22:26:39.581Z,6.07
2023-03-16T22:29:21.911Z,8.07
2023-03-16T22:32:03.772Z,5.95
2023-03-16T22:34:42.662Z,6.57
2023-03-16T22:37:12.617Z,7.28
2023-03-16T22:39:40.331Z,7.03
2023-03-16T22:42:27.431Z,12.65
2023-03-16T22:44:57.441Z,6.55
2023-03-16T22:47:29.592Z,7.28
2023-03-16T22:49:56.516Z,8.85
2023-03-16T22:52:27.968Z,9.82
2023-03-16T22:54:54.910Z,7.30
2023-03-16T22:57:21.640Z,7.38
2023-03-16T22:59:49.589Z,7.95
2023-03-16T23:02:19.231Z,7.47
2023-03-16T23:04:47.478Z,3.72
2023-03-16T23:07:14.396Z,5.95
2023-03-16T23:09:41.002Z,4.53
2023-03-16T23:12:15.622Z,12.75
2023-03-16T23:14:42.191Z,5.32
2023-03-16T23:17:20.471Z,6.18
2023-03-16T23:19:47.076Z,5.80
2023-03-16T23:22:14.313Z,4.68
2023-03-16T23:24:40.956Z,5.72
2023-03-16T23:27:19.065Z,4.82
2023-03-16T23:29:46.101Z,7.70
2023-03-16T23:32:14.665Z,4.07
2023-03-16T23:34:41.254Z,3.75
2023-03-16T23:37:07.903Z,3.55
2023-03-16T23:39:34.484Z,3.83
2023-03-16T23:42:01.054Z,4.88
2023-03-16T23:44:29.373Z,3.30
2023-03-16T23:46:56.485Z,5.32
2023-03-16T23:49:32.615Z,11.33
2023-03-16T23:52:00.902Z,3.92
2023-03-16T23:54:30.324Z,5.65
2023-03-16T23:56:56.915Z,4.90
2023-03-16T23:59:23.812Z,4.90
